Hakon Mosby — LJIT — position and weather

sailwx.info

Track history (hours):
 
Tides and Currents Weather Stations Pressure Air Temp Water Temp Dewpoint Dewpoint Depression Visibility Wind Speed Wind Dir Waves Ship Positions

Oceanographic research ship Hakon Mosby (Norway)

Detailed information on ship capabilities available from University of Delaware's Ocean Information Center and ARCUS's ALIAS (Arctic Logistics Information and Support) project.

Last reported at 2014-Aug-21 09:00 UTC. Time now 2014-Aug-21 12:07 UTC.
Position N 78°12' E 014°48'.

Type: Dredging. MMSI: 258244000.

Wind from 220 at 8 knots

Barometer 1011.2 mb
Air temperature 6.3 ° C
Dewpoint 2.6 ° C
Water temperature 7.1 ° C

Date/timePositionNaut miles runAvg speedWind from/ knotsBaromVisibWave heightAir tempDewpointWater temp
2014-Aug-21 09:00N 78°12' E 014°48'4 3.7 220 / 81011.2 6.3 2.6 7.1
2014-Aug-21 08:00N 78°12' E 014°30'4 3.7 230 / 81011.3 6.5 2.9 7.0
2014-Aug-21 07:00N 78°12' E 014°12'8 7.8 250 / 81011.5 6.8 2.9 7.6
2014-Aug-21 06:00N 78°06' E 013°48'1 0.6 260 / 61011.8 6.1 2.5 7.1
2014-Aug-21 04:00N 78°06' E 013°54'0 0.0 010 / 41012.2 5.8-0.3 7.2
2014-Aug-21 03:00N 78°06' E 013°54'6 3.2 340 / 41012.7 5.5 2.3 7.2
2014-Aug-21 01:00N 78°12' E 014°06'2 2.5 040 / 61013.2 5.5 2.4 7.6
2014-Aug-21 00:00N 78°12' E 014°18'2 2.5 070 / 41013.3 5.9 1.8 7.3
2014-Aug-20 23:00N 78°12' E 014°30'9 4.3 080 / 61013.2 5.9 1.4 6.9
2014-Aug-20 21:00N 78°18' E 015°00'6 2.0 070 / 61013.3 6.1 1.9 7.3
2014-Aug-20 18:00N 78°12' E 014°54'1312.6 230 / 81013.6 6.6 2.4 7.8
2014-Aug-20 17:00N 78°06' E 014°00'1110.6 290 / 101013.6 1.3-3.3 7.3
2014-Aug-20 16:00N 78°00' E 013°18'7 6.5 300 / 61014.1 6.5 2.6 6.5
2014-Aug-20 15:00N 77°54' E 013°06'18 9.2 320 / 61014.2 5.9 1.2 6.4
2014-Aug-20 13:00N 77°42' E 014°12'14 2.8 280 / 141014.3 6.0 1.5 6.1
2014-Aug-20 08:00N 77°42' E 015°18'8 3.8 120 / 21014.7 4.9 1.5 6.4
2014-Aug-20 06:00N 77°42' E 014°42'9 4.4 080 / 21014.7 4.8 1.8 6.2
2014-Aug-20 04:00N 77°48' E 015°12'6 6.0 100 / 41014.6 4.2 0.9 6.1
2014-Aug-20 03:00N 77°42' E 015°12'6 3.2 100 / 81014.7 4.4 1.2 6.1
2014-Aug-20 01:00N 77°42' E 014°42'4 3.8 090 / 81015.0 4.6 1.5 5.6
2014-Aug-20 00:00N 77°42' E 015°00'8 7.9 100 / 121014.8 4.5 1.6 6.2
2014-Aug-19 23:00N 77°48' E 015°24'1 1.3 100 / 141014.7 4.1 1.0 6.3
2014-Aug-19 22:00N 77°48' E 015°30'11 5.4 120 / 171014.4 4.4 0.8 6.3
2014-Aug-19 20:00N 77°42' E 014°48'9 3.0 260 / 81013.6 6.3 3.6 5.9
2014-Aug-19 17:00N 77°42' E 015°30'3 0.3 270 / 161012.2 6.3 3.7 6.2
2014-Aug-19 08:00N 77°42' E 015°18'4 3.8 220 / 21010.7 5.9 2.6 6.0
2014-Aug-19 07:00N 77°42' E 015°00'4 3.8 180 / 21010.3 5.9 2.5 5.8
2014-Aug-19 06:00N 77°42' E 014°42'1 1.3 010 / 21009.8 5.4 2.2 6.1
2014-Aug-19 05:00N 77°42' E 014°48'1 0.6 350 / 41009.7 3.3 0.2 6.0
2014-Aug-19 03:00N 77°42' E 014°42'0 0.0 070 / 21009.2 4.5 1.9 5.6
2014-Aug-19 02:00N 77°42' E 014°42'1 1.3 100 / 61009.2 5.2 2.4 5.4
2014-Aug-19 01:00N 77°42' E 014°48'0 0.0 100 / 81008.7 5.3 2.6 5.4
2014-Aug-19 00:00N 77°42' E 014°48'1 1.3 090 / 121008.6 5.4 2.6 5.8
2014-Aug-18 23:00N 77°42' E 014°54'0 0.0 090 / 121008.2 5.6 2.6 5.8
2014-Aug-18 22:00N 77°42' E 014°54'1 1.3 090 / 121008.0 5.9 2.5 5.9
2014-Aug-18 21:00N 77°42' E 015°00'3 2.6 100 / 121007.8 6.2 3.2 6.0
2014-Aug-18 20:00N 77°42' E 014°48'4 3.8 230 / 81007.6 6.8 3.4 6.1
2014-Aug-18 19:00N 77°42' E 014°30'3 2.6 230 / 81007.2 6.8 2.5 5.6
2014-Aug-18 18:00N 77°42' E 014°42'3 2.6 290 / 101007.2 7.6 0.3 6.2
2014-Aug-18 17:00N 77°42' E 014°54'1 1.3 280 / 101007.2 7.9 1.8 5.9
2014-Aug-18 16:00N 77°42' E 015°00'7 7.1 230 / 21007.1 8.5 2.6 6.1
2014-Aug-18 15:00N 77°48' E 015°18'4 3.8 250 / 81007.2 7.3 2.7 6.1
2014-Aug-18 14:00N 77°48' E 015°36'4 3.8 270 / 121007.3 7.4 2.2 6.3
2014-Aug-18 13:00N 77°48' E 015°54'6 0.4 260 / 121007.7 8.0 1.3 6.3
2014-Aug-17 22:00N 77°48' E 015°24'7 7.1 230 / 121009.5 6.5 4.4 5.9
2014-Aug-17 21:00N 77°42' E 015°06'0 0.0 240 / 101009.5 6.5 4.2 6.0
2014-Aug-17 13:00N 77°42' E 015°06'3 2.6 240 / 161010.2 6.3 3.5 6.3
2014-Aug-17 12:00N 77°42' E 014°54'4 3.8 250 / 141010.3 6.3 3.3 5.9
2014-Aug-17 11:00N 77°42' E 014°36'17 8.3 250 / 121010.2 6.0 3.3 5.6
2014-Aug-17 09:00N 77°42' E 013°18'18 9.0 240 / 61010.7 6.0 2.9 5.8
2014-Aug-17 07:00N 78°00' E 013°18'11 5.3 080 / 121010.7 6.8 0.3 6.6
2014-Aug-17 05:00N 78°06' E 014°00'2 2.5 060 / 101011.1 5.9 1.0 6.5
2014-Aug-17 04:00N 78°06' E 014°12'6 6.5 060 / 121011.2 5.5 1.2 7.1
2014-Aug-17 03:00N 78°12' E 014°24'5 4.9 060 / 121011.2 6.3 1.8 7.1
2014-Aug-17 02:00N 78°12' E 014°48'4 3.7 060 / 161011.2 5.4 1.1 7.0
2014-Aug-17 01:00N 78°12' E 015°06'6 2.2 080 / 171011.2 5.4 1.3 6.9
2014-Aug-16 22:00N 78°18' E 015°18'6 6.0 080 / 171011.3 5.5 1.4 6.8
2014-Aug-16 21:00N 78°12' E 015°18'   310 / 211011.5 5.6 0.6 6.7
Track history (hours):
 
Tides and Currents Weather Stations Pressure Air Temp Water Temp Dewpoint Dewpoint Depression Visibility Wind Speed Wind Dir Waves Ship Positions

Oceanographic research ship Hakon Mosby (Norway)

Detailed information on ship capabilities available from University of Delaware's Ocean Information Center and ARCUS's ALIAS (Arctic Logistics Information and Support) project.

Last reported at 2014-Aug-21 09:00 UTC. Time now 2014-Aug-21 12:07 UTC.
Position N 78°12' E 014°48'.

Type: Dredging. MMSI: 258244000.

Wind from 220 at 8 knots

Barometer 1011.2 mb
Air temperature 6.3 ° C
Dewpoint 2.6 ° C
Water temperature 7.1 ° C

Date/timePositionNaut miles runAvg speedWind from/ knotsBaromVisibWave heightAir tempDewpointWater temp
2014-Aug-21 09:00N 78°12' E 014°48'4 3.7 220 / 81011.2 6.3 2.6 7.1
2014-Aug-21 08:00N 78°12' E 014°30'4 3.7 230 / 81011.3 6.5 2.9 7.0
2014-Aug-21 07:00N 78°12' E 014°12'8 7.8 250 / 81011.5 6.8 2.9 7.6
2014-Aug-21 06:00N 78°06' E 013°48'1 0.6 260 / 61011.8 6.1 2.5 7.1
2014-Aug-21 04:00N 78°06' E 013°54'0 0.0 010 / 41012.2 5.8-0.3 7.2
2014-Aug-21 03:00N 78°06' E 013°54'6 3.2 340 / 41012.7 5.5 2.3 7.2
2014-Aug-21 01:00N 78°12' E 014°06'2 2.5 040 / 61013.2 5.5 2.4 7.6
2014-Aug-21 00:00N 78°12' E 014°18'2 2.5 070 / 41013.3 5.9 1.8 7.3
2014-Aug-20 23:00N 78°12' E 014°30'9 4.3 080 / 61013.2 5.9 1.4 6.9
2014-Aug-20 21:00N 78°18' E 015°00'6 2.0 070 / 61013.3 6.1 1.9 7.3
2014-Aug-20 18:00N 78°12' E 014°54'1312.6 230 / 81013.6 6.6 2.4 7.8
2014-Aug-20 17:00N 78°06' E 014°00'1110.6 290 / 101013.6 1.3-3.3 7.3
2014-Aug-20 16:00N 78°00' E 013°18'7 6.5 300 / 61014.1 6.5 2.6 6.5
2014-Aug-20 15:00N 77°54' E 013°06'18 9.2 320 / 61014.2 5.9 1.2 6.4
2014-Aug-20 13:00N 77°42' E 014°12'14 2.8 280 / 141014.3 6.0 1.5 6.1
2014-Aug-20 08:00N 77°42' E 015°18'8 3.8 120 / 21014.7 4.9 1.5 6.4
2014-Aug-20 06:00N 77°42' E 014°42'9 4.4 080 / 21014.7 4.8 1.8 6.2
2014-Aug-20 04:00N 77°48' E 015°12'6 6.0 100 / 41014.6 4.2 0.9 6.1
2014-Aug-20 03:00N 77°42' E 015°12'6 3.2 100 / 81014.7 4.4 1.2 6.1
2014-Aug-20 01:00N 77°42' E 014°42'4 3.8 090 / 81015.0 4.6 1.5 5.6
2014-Aug-20 00:00N 77°42' E 015°00'8 7.9 100 / 121014.8 4.5 1.6 6.2
2014-Aug-19 23:00N 77°48' E 015°24'1 1.3 100 / 141014.7 4.1 1.0 6.3
2014-Aug-19 22:00N 77°48' E 015°30'11 5.4 120 / 171014.4 4.4 0.8 6.3
2014-Aug-19 20:00N 77°42' E 014°48'9 3.0 260 / 81013.6 6.3 3.6 5.9
2014-Aug-19 17:00N 77°42' E 015°30'3 0.3 270 / 161012.2 6.3 3.7 6.2
2014-Aug-19 08:00N 77°42' E 015°18'4 3.8 220 / 21010.7 5.9 2.6 6.0
2014-Aug-19 07:00N 77°42' E 015°00'4 3.8 180 / 21010.3 5.9 2.5 5.8
2014-Aug-19 06:00N 77°42' E 014°42'1 1.3 010 / 21009.8 5.4 2.2 6.1
2014-Aug-19 05:00N 77°42' E 014°48'1 0.6 350 / 41009.7 3.3 0.2 6.0
2014-Aug-19 03:00N 77°42' E 014°42'0 0.0 070 / 21009.2 4.5 1.9 5.6
2014-Aug-19 02:00N 77°42' E 014°42'1 1.3 100 / 61009.2 5.2 2.4 5.4
2014-Aug-19 01:00N 77°42' E 014°48'0 0.0 100 / 81008.7 5.3 2.6 5.4
2014-Aug-19 00:00N 77°42' E 014°48'1 1.3 090 / 121008.6 5.4 2.6 5.8
2014-Aug-18 23:00N 77°42' E 014°54'0 0.0 090 / 121008.2 5.6 2.6 5.8
2014-Aug-18 22:00N 77°42' E 014°54'1 1.3 090 / 121008.0 5.9 2.5 5.9
2014-Aug-18 21:00N 77°42' E 015°00'3 2.6 100 / 121007.8 6.2 3.2 6.0
2014-Aug-18 20:00N 77°42' E 014°48'4 3.8 230 / 81007.6 6.8 3.4 6.1
2014-Aug-18 19:00N 77°42' E 014°30'3 2.6 230 / 81007.2 6.8 2.5 5.6
2014-Aug-18 18:00N 77°42' E 014°42'3 2.6 290 / 101007.2 7.6 0.3 6.2
2014-Aug-18 17:00N 77°42' E 014°54'1 1.3 280 / 101007.2 7.9 1.8 5.9
2014-Aug-18 16:00N 77°42' E 015°00'7 7.1 230 / 21007.1 8.5 2.6 6.1
2014-Aug-18 15:00N 77°48' E 015°18'4 3.8 250 / 81007.2 7.3 2.7 6.1
2014-Aug-18 14:00N 77°48' E 015°36'4 3.8 270 / 121007.3 7.4 2.2 6.3
2014-Aug-18 13:00N 77°48' E 015°54'6 0.4 260 / 121007.7 8.0 1.3 6.3
2014-Aug-17 22:00N 77°48' E 015°24'7 7.1 230 / 121009.5 6.5 4.4 5.9
2014-Aug-17 21:00N 77°42' E 015°06'0 0.0 240 / 101009.5 6.5 4.2 6.0
2014-Aug-17 13:00N 77°42' E 015°06'3 2.6 240 / 161010.2 6.3 3.5 6.3
2014-Aug-17 12:00N 77°42' E 014°54'4 3.8 250 / 141010.3 6.3 3.3 5.9
2014-Aug-17 11:00N 77°42' E 014°36'17 8.3 250 / 121010.2 6.0 3.3 5.6
2014-Aug-17 09:00N 77°42' E 013°18'18 9.0 240 / 61010.7 6.0 2.9 5.8
2014-Aug-17 07:00N 78°00' E 013°18'11 5.3 080 / 121010.7 6.8 0.3 6.6
2014-Aug-17 05:00N 78°06' E 014°00'2 2.5 060 / 101011.1 5.9 1.0 6.5
2014-Aug-17 04:00N 78°06' E 014°12'6 6.5 060 / 121011.2 5.5 1.2 7.1
2014-Aug-17 03:00N 78°12' E 014°24'5 4.9 060 / 121011.2 6.3 1.8 7.1
2014-Aug-17 02:00N 78°12' E 014°48'4 3.7 060 / 161011.2 5.4 1.1 7.0
2014-Aug-17 01:00N 78°12' E 015°06'6 2.2 080 / 171011.2 5.4 1.3 6.9
2014-Aug-16 22:00N 78°18' E 015°18'6 6.0 080 / 171011.3 5.5 1.4 6.8
2014-Aug-16 21:00N 78°12' E 015°18'   310 / 211011.5 5.6 0.6 6.7

Dump ship's entire track history